createdAt,value
2023-01-30T00:03:25.088Z,99166.77
2023-01-30T00:06:49.071Z,99164.81
2023-01-30T00:10:13.149Z,99158.40
2023-01-30T00:13:37.796Z,99160.41
2023-01-30T00:17:01.660Z,99157.41
2023-01-30T00:20:25.532Z,99152.65
2023-01-30T00:23:49.365Z,99146.67
2023-01-30T00:27:13.356Z,99135.92
2023-01-30T00:30:37.324Z,99127.45
2023-01-30T00:34:01.143Z,99116.43
2023-01-30T00:37:25.142Z,99111.11
2023-01-30T00:40:49.801Z,99106.46
2023-01-30T00:44:31.322Z,99097.41
2023-01-30T00:47:55.250Z,99101.02
2023-01-30T00:51:19.169Z,99092.92
2023-01-30T00:54:44.831Z,99081.71
2023-01-30T00:58:08.783Z,99073.11
2023-01-30T01:01:32.745Z,99064.52
2023-01-30T01:04:56.652Z,99060.23
2023-01-30T01:08:22.662Z,99054.64
2023-01-30T01:11:46.943Z,99051.62
2023-01-30T01:15:13.061Z,99045.22
2023-01-30T01:18:37.180Z,99043.77
2023-01-30T01:22:01.277Z,99038.52
2023-01-30T01:25:25.754Z,99033.39
2023-01-30T01:28:50.135Z,99026.94
2023-01-30T01:32:15.111Z,99023.92
2023-01-30T01:35:44.399Z,99018.80
2023-01-30T01:39:08.503Z,99007.59
2023-01-30T01:42:36.921Z,99003.55
2023-01-30T01:46:10.991Z,98998.75
2023-01-30T01:49:38.094Z,98981.23
2023-01-30T01:53:03.228Z,98971.38
2023-01-30T01:56:27.368Z,98968.45
2023-01-30T01:59:55.823Z,98961.45
2023-01-30T02:03:26.254Z,98950.63
2023-01-30T02:06:50.170Z,98943.02
2023-01-30T02:10:21.931Z,98942.50
2023-01-30T02:13:48.125Z,98927.70
2023-01-30T02:17:12.619Z,98924.48
2023-01-30T02:20:55.154Z,98914.40
2023-01-30T02:24:51.464Z,98908.55
2023-01-30T02:29:02.044Z,98907.27
2023-01-30T02:32:51.884Z,98897.90
2023-01-30T02:36:15.940Z,98882.09
2023-01-30T02:40:07.631Z,98876.92
2023-01-30T02:43:54.545Z,98869.75
2023-01-30T02:47:30.059Z,98869.87
2023-01-30T02:51:02.895Z,98864.13
2023-01-30T02:54:27.713Z,98854.77
2023-01-30T02:57:51.897Z,98841.69
2023-01-30T03:01:44.322Z,98837.23
2023-01-30T03:05:14.700Z,98832.85
2023-01-30T03:08:57.883Z,98826.44
2023-01-30T03:12:33.755Z,98820.99
2023-01-30T03:16:22.204Z,98812.43
2023-01-30T03:19:46.480Z,98805.48
2023-01-30T03:23:10.684Z,98799.08
2023-01-30T03:26:38.821Z,98801.29
2023-01-30T03:30:03.051Z,98792.92
2023-01-30T03:33:27.189Z,98794.00
2023-01-30T03:36:51.657Z,98790.14
2023-01-30T03:40:17.583Z,98784.77
2023-01-30T03:43:42.212Z,98777.13
2023-01-30T03:47:06.703Z,98774.05
2023-01-30T03:50:30.663Z,98770.78
2023-01-30T03:53:54.966Z,98767.84
2023-01-30T03:57:19.479Z,98762.68
2023-01-30T04:00:43.605Z,98752.82
2023-01-30T04:04:07.759Z,98748.23
2023-01-30T04:07:31.825Z,98741.25
2023-01-30T04:10:56.144Z,98734.92
2023-01-30T04:14:20.662Z,98728.30
2023-01-30T04:18:04.671Z,98719.81
2023-01-30T04:21:35.006Z,98711.05
2023-01-30T04:24:58.959Z,98710.23
2023-01-30T04:28:23.164Z,98701.92
2023-01-30T04:31:47.095Z,98697.44
2023-01-30T04:35:20.440Z,98691.19
2023-01-30T04:38:46.680Z,98691.61
2023-01-30T04:42:10.685Z,98683.42
2023-01-30T04:45:44.757Z,98665.49
2023-01-30T04:49:11.091Z,98654.95
2023-01-30T04:52:35.014Z,98651.62
2023-01-30T04:55:58.888Z,98644.41
2023-01-30T04:59:23.634Z,98646.91
2023-01-30T05:02:50.364Z,98644.23
2023-01-30T05:06:14.385Z,98632.44
2023-01-30T05:09:38.616Z,98637.93
2023-01-30T05:13:06.539Z,98638.71
2023-01-30T05:16:30.945Z,98642.72
2023-01-30T05:19:54.769Z,98636.58
2023-01-30T05:23:18.614Z,98635.21
2023-01-30T05:26:42.499Z,98627.29
2023-01-30T05:30:07.097Z,98614.79
2023-01-30T05:33:33.324Z,98602.59
2023-01-30T05:36:57.371Z,98592.66
2023-01-30T05:40:21.218Z,98587.10
2023-01-30T05:43:45.953Z,98586.24
2023-01-30T05:47:09.791Z,98582.17
2023-01-30T05:50:33.783Z,98579.81
2023-01-30T05:53:57.923Z,98577.02
2023-01-30T05:57:21.819Z,98577.05
2023-01-30T06:00:45.644Z,98569.11
2023-01-30T06:04:09.702Z,98569.67
2023-01-30T06:07:33.515Z,98563.65
2023-01-30T06:11:02.449Z,98553.55
2023-01-30T06:14:26.366Z,98541.91
2023-01-30T06:17:50.483Z,98535.98
2023-01-30T06:21:15.524Z,98542.46
2023-01-30T06:24:39.477Z,98532.05
2023-01-30T06:28:03.284Z,98519.70
2023-01-30T06:31:27.180Z,98513.92
2023-01-30T06:34:51.118Z,98503.67
2023-01-30T06:38:14.939Z,98492.14
2023-01-30T06:41:38.746Z,98471.55
2023-01-30T06:45:03.002Z,98450.98
2023-01-30T06:48:27.916Z,98447.98
2023-01-30T06:51:51.818Z,98443.02
2023-01-30T06:55:18.444Z,98436.47
2023-01-30T06:58:42.572Z,98425.08
2023-01-30T07:02:07.586Z,98415.81
2023-01-30T07:05:31.997Z,98415.23
2023-01-30T07:08:58.545Z,98421.15
2023-01-30T07:12:22.543Z,98424.01
2023-01-30T07:15:46.808Z,98412.54
2023-01-30T07:19:10.831Z,98390.45
2023-01-30T07:22:34.780Z,98386.12
2023-01-30T07:25:59.033Z,98387.42
2023-01-30T07:29:23.162Z,98399.02
2023-01-30T07:32:51.291Z,98403.21
2023-01-30T07:36:15.407Z,98390.42
2023-01-30T07:39:39.255Z,98382.44
2023-01-30T07:43:06.100Z,98389.40
2023-01-30T07:46:35.089Z,98385.92
2023-01-30T07:49:59.057Z,98385.73
2023-01-30T07:53:23.025Z,98385.87
2023-01-30T07:56:46.893Z,98380.44
2023-01-30T08:00:12.370Z,98384.24
2023-01-30T08:03:36.262Z,98383.61
2023-01-30T08:07:00.265Z,98374.24
2023-01-30T08:10:24.964Z,98374.16
2023-01-30T08:13:49.678Z,98369.36
2023-01-30T08:17:13.818Z,98366.29
2023-01-30T08:20:38.295Z,98363.00
2023-01-30T08:24:02.127Z,98361.86
2023-01-30T08:27:26.127Z,98351.61
2023-01-30T08:30:52.122Z,98350.33
2023-01-30T08:34:16.105Z,98331.70
2023-01-30T08:37:41.894Z,98318.47
2023-01-30T08:41:07.644Z,98330.81
2023-01-30T08:44:32.559Z,98331.39
2023-01-30T08:48:04.555Z,98327.06
2023-01-30T08:51:28.416Z,98326.55
2023-01-30T08:54:52.298Z,98317.08
2023-01-30T08:58:16.178Z,98307.58
2023-01-30T09:01:40.081Z,98293.98
2023-01-30T09:05:04.677Z,98270.06
2023-01-30T09:08:28.563Z,98268.45
2023-01-30T09:11:53.118Z,98271.59
2023-01-30T09:15:17.243Z,98259.38
2023-01-30T09:18:43.103Z,98252.34
2023-01-30T09:22:07.517Z,98249.45
2023-01-30T09:25:31.382Z,98243.77
2023-01-30T09:28:55.339Z,98233.69
2023-01-30T09:32:19.483Z,98213.80
2023-01-30T09:35:43.936Z,98202.90
2023-01-30T09:39:08.146Z,98191.88
2023-01-30T09:42:50.743Z,98193.77
2023-01-30T09:46:31.354Z,98189.20
2023-01-30T09:50:18.043Z,98186.83
2023-01-30T09:54:04.145Z,98171.11
2023-01-30T09:57:28.680Z,98168.00
2023-01-30T10:00:57.237Z,98173.48
2023-01-30T10:05:00.949Z,98173.06
2023-01-30T10:08:56.891Z,98159.64
2023-01-30T10:12:42.982Z,98155.14
2023-01-30T10:16:22.800Z,98156.26
2023-01-30T10:19:52.816Z,98155.13
2023-01-30T10:23:32.117Z,98147.86
2023-01-30T10:26:58.487Z,98141.02
2023-01-30T10:30:22.937Z,98131.47
2023-01-30T10:34:04.247Z,98131.13
2023-01-30T10:37:37.484Z,98120.78
2023-01-30T10:41:23.100Z,98109.04
2023-01-30T10:44:47.896Z,98099.81
2023-01-30T10:48:42.599Z,98090.28
2023-01-30T10:52:27.292Z,98078.55
2023-01-30T10:55:57.577Z,98072.30
2023-01-30T10:59:43.389Z,98065.50
2023-01-30T11:03:21.714Z,98058.80
2023-01-30T11:06:45.893Z,98058.70
2023-01-30T11:10:29.025Z,98055.57
2023-01-30T11:14:14.516Z,98057.67
2023-01-30T11:17:42.433Z,98049.17
2023-01-30T11:21:09.715Z,98044.56
2023-01-30T11:24:42.360Z,98041.38
2023-01-30T11:28:07.238Z,98028.32
2023-01-30T11:31:41.232Z,98025.95
2023-01-30T11:35:11.376Z,98016.46
2023-01-30T11:38:41.263Z,98006.00
2023-01-30T11:42:11.971Z,97997.14
2023-01-30T11:45:39.695Z,97991.23
2023-01-30T11:49:45.424Z,97984.92
2023-01-30T11:53:05.251Z,97989.55
2023-01-30T11:56:48.591Z,97982.84
2023-01-30T12:00:24.970Z,97977.54
2023-01-30T12:03:54.267Z,97971.05
2023-01-30T12:07:30.109Z,97972.14
2023-01-30T12:10:59.841Z,97965.48
2023-01-30T12:14:32.776Z,97961.80
2023-01-30T12:18:06.446Z,97960.67
2023-01-30T12:21:38.408Z,97949.67
2023-01-30T12:25:17.445Z,97944.27
2023-01-30T12:29:03.173Z,97940.46
2023-01-30T12:32:30.029Z,97939.74
2023-01-30T12:36:15.119Z,97939.75
2023-01-30T12:40:03.569Z,97927.70
2023-01-30T12:43:44.910Z,97932.33
2023-01-30T12:47:47.147Z,97926.98
2023-01-30T12:51:23.453Z,97929.14
2023-01-30T12:54:56.879Z,97926.29
2023-01-30T12:58:36.085Z,97925.64
2023-01-30T13:02:21.862Z,97919.95
2023-01-30T13:06:28.931Z,97902.94
2023-01-30T13:10:09.856Z,97909.23
2023-01-30T13:13:44.990Z,97911.17
2023-01-30T13:17:11.751Z,97908.55
2023-01-30T13:20:53.801Z,97906.50
2023-01-30T13:24:46.612Z,97907.20
2023-01-30T13:28:19.022Z,97906.62
2023-01-30T13:31:56.951Z,97900.52
2023-01-30T13:35:25.693Z,97901.77
2023-01-30T13:39:05.909Z,97902.13
2023-01-30T13:43:01.792Z,97899.12
2023-01-30T13:46:30.555Z,97901.02
2023-01-30T13:50:02.346Z,97900.23
2023-01-30T13:53:39.960Z,97899.73
2023-01-30T13:57:10.377Z,97894.48
2023-01-30T14:00:36.895Z,97897.20
2023-01-30T14:04:44.796Z,97899.95
2023-01-30T14:08:18.643Z,97902.73
2023-01-30T14:11:51.843Z,97894.85
2023-01-30T14:15:15.799Z,97896.49
2023-01-30T14:18:40.238Z,97892.91
2023-01-30T14:22:21.708Z,97888.23
2023-01-30T14:25:48.548Z,97898.54
2023-01-30T14:29:12.419Z,97892.71
2023-01-30T14:33:07.250Z,97892.45
2023-01-30T14:37:07.213Z,97883.11
2023-01-30T14:41:14.219Z,97889.38
2023-01-30T14:45:13.205Z,97891.17
2023-01-30T14:49:34.239Z,97889.98
2023-01-30T14:53:32.173Z,97883.71
2023-01-30T14:57:43.180Z,97890.70
2023-01-30T15:01:41.548Z,97889.05
2023-01-30T15:05:47.338Z,97891.48
2023-01-30T15:09:46.237Z,97896.80
2023-01-30T15:14:12.272Z,97895.19
2023-01-30T15:18:40.130Z,97891.16
2023-01-30T15:23:00.221Z,97894.20
2023-01-30T15:27:30.160Z,97892.95
2023-01-30T15:31:33.284Z,97885.32
2023-01-30T15:35:31.139Z,97894.05
2023-01-30T15:39:38.195Z,97895.46
2023-01-30T15:43:51.228Z,97900.96
2023-01-30T15:48:09.796Z,97908.02
2023-01-30T15:52:08.119Z,97914.42
2023-01-30T15:56:08.169Z,97916.25
2023-01-30T16:00:09.106Z,97922.98
2023-01-30T16:04:07.129Z,97923.25
2023-01-30T16:08:23.148Z,97923.33
2023-01-30T16:12:47.126Z,97931.52
2023-01-30T16:16:47.155Z,97936.19
2023-01-30T16:21:02.084Z,97930.60
2023-01-30T16:25:05.122Z,97930.08
2023-01-30T16:29:05.152Z,97935.85
2023-01-30T16:37:02.101Z,97941.98
2023-01-30T16:41:01.295Z,97943.67
2023-01-30T16:44:59.075Z,97943.72
2023-01-30T16:48:58.015Z,97943.39
2023-01-30T16:53:02.249Z,97948.73
2023-01-30T16:57:03.336Z,97949.21
2023-01-30T17:01:05.420Z,97942.02
2023-01-30T17:05:03.244Z,97941.88
2023-01-30T17:09:10.694Z,97950.29
2023-01-30T17:13:08.113Z,97954.43
2023-01-30T17:17:20.185Z,97948.80
2023-01-30T17:21:20.836Z,97952.84
2023-01-30T17:25:30.177Z,97954.23
2023-01-30T17:29:47.358Z,97950.48
2023-01-30T17:33:48.986Z,97950.23
2023-01-30T17:37:53.207Z,97953.03
2023-01-30T17:41:58.997Z,97954.04
2023-01-30T17:45:57.749Z,97965.39
2023-01-30T17:50:00.187Z,97963.30
2023-01-30T17:53:59.167Z,97945.16
2023-01-30T17:57:59.334Z,97947.16
2023-01-30T18:02:03.951Z,97943.04
2023-01-30T18:06:06.970Z,97950.99
2023-01-30T18:10:07.055Z,97965.77
2023-01-30T18:14:08.002Z,97965.46
2023-01-30T18:18:05.952Z,97968.73
2023-01-30T18:22:04.899Z,97978.75
2023-01-30T18:26:02.909Z,97979.21
2023-01-30T18:30:00.906Z,97977.52
2023-01-30T18:33:58.930Z,97980.26
2023-01-30T18:38:02.372Z,97985.16
2023-01-30T18:42:00.886Z,97985.82
2023-01-30T18:45:58.986Z,97989.08
2023-01-30T18:49:59.528Z,97995.90
2023-01-30T18:53:57.931Z,97987.46
2023-01-30T18:57:55.851Z,97991.27
2023-01-30T19:01:54.966Z,97988.04
2023-01-30T19:05:53.045Z,97993.61
2023-01-30T19:09:51.078Z,97991.89
2023-01-30T19:13:48.843Z,97990.89
2023-01-30T19:17:46.860Z,97990.08
2023-01-30T19:21:45.828Z,97988.75
2023-01-30T19:25:43.910Z,97989.48
2023-01-30T19:29:41.866Z,97994.30
2023-01-30T19:33:39.982Z,97996.70
2023-01-30T19:37:37.799Z,97998.16
2023-01-30T19:41:42.107Z,97999.02
2023-01-30T19:45:39.772Z,98004.19
2023-01-30T19:49:37.843Z,98002.13
2023-01-30T19:53:37.778Z,97999.41
2023-01-30T19:57:35.837Z,98003.46
2023-01-30T20:01:36.981Z,98005.35
2023-01-30T20:05:34.874Z,98000.76
2023-01-30T20:09:33.849Z,98000.95
2023-01-30T20:13:31.762Z,98002.56
2023-01-30T20:17:29.802Z,97996.93
2023-01-30T20:21:29.824Z,98003.73
2023-01-30T20:25:27.691Z,97999.50
2023-01-30T20:29:25.983Z,97995.79
2023-01-30T20:33:23.713Z,97992.73
2023-01-30T20:37:21.869Z,97993.82
2023-01-30T20:41:22.717Z,97992.31
2023-01-30T20:45:22.095Z,97995.83
2023-01-30T20:49:20.732Z,97992.98
2023-01-30T20:53:18.781Z,97988.48
2023-01-30T20:57:16.854Z,97995.52
2023-01-30T21:01:22.776Z,98000.77
2023-01-30T21:05:21.054Z,97992.77
2023-01-30T21:09:19.732Z,97994.73
2023-01-30T21:13:17.675Z,97999.84
2023-01-30T21:17:15.809Z,97994.42
2023-01-30T21:21:14.665Z,98002.23
2023-01-30T21:25:12.774Z,98002.11
2023-01-30T21:29:11.668Z,97995.94
2023-01-30T21:33:09.749Z,97998.95
2023-01-30T21:37:24.597Z,98004.38
2023-01-30T21:41:43.686Z,98004.36
2023-01-30T21:45:41.689Z,98010.64
2023-01-30T21:49:41.802Z,98012.69
2023-01-30T21:53:40.618Z,98018.59
2023-01-30T21:57:39.120Z,98018.89
2023-01-30T22:01:37.689Z,98020.20
2023-01-30T22:05:42.730Z,98025.64
2023-01-30T22:09:40.607Z,98025.37
2023-01-30T22:13:38.714Z,98019.65
2023-01-30T22:17:36.584Z,98023.04
2023-01-30T22:21:38.768Z,98024.41
2023-01-30T22:25:36.616Z,98027.02
2023-01-30T22:29:36.136Z,98028.43
2023-01-30T22:33:33.540Z,98032.41
2023-01-30T22:37:31.676Z,98032.65
2023-01-30T22:41:33.559Z,98034.77
2023-01-30T22:45:31.564Z,98029.39
2023-01-30T22:49:29.636Z,98030.54
2023-01-30T22:53:27.642Z,98025.27
2023-01-30T22:57:26.543Z,98032.61
2023-01-30T23:01:37.087Z,98035.61
2023-01-30T23:05:34.532Z,98036.15
2023-01-30T23:09:35.669Z,98040.67
2023-01-30T23:13:33.509Z,98047.95
2023-01-30T23:17:49.520Z,98050.40
2023-01-30T23:21:55.477Z,98056.87
2023-01-30T23:25:56.620Z,98053.02
2023-01-30T23:29:54.470Z,98057.65
2023-01-30T23:33:52.498Z,98064.43
2023-01-30T23:38:08.579Z,98062.49
2023-01-30T23:42:06.522Z,98061.72
2023-01-30T23:46:05.484Z,98067.84
2023-01-30T23:50:03.478Z,98071.96
2023-01-30T23:54:01.428Z,98068.70
2023-01-30T23:57:59.495Z,98071.85
